sensor_id;sensor_type;location;lat;lon;timestamp;P1;durP1;ratioP1;P2;durP2;ratioP2
45354;SDS011;31091;48.758;9.150;2024-03-17T00:01:14;5.93;;;2.88;;
45354;SDS011;31091;48.758;9.150;2024-03-17T00:03:59;10.50;;;3.42;;
45354;SDS011;31091;48.758;9.150;2024-03-17T00:06:45;5.65;;;2.65;;
45354;SDS011;31091;48.758;9.150;2024-03-17T00:09:30;7.57;;;2.72;;
45354;SDS011;31091;48.758;9.150;2024-03-17T00:12:15;4.50;;;2.65;;
45354;SDS011;31091;48.758;9.150;2024-03-17T00:15:01;4.38;;;2.78;;
45354;SDS011;31091;48.758;9.150;2024-03-17T00:17:46;7.68;;;2.95;;
45354;SDS011;31091;48.758;9.150;2024-03-17T00:20:31;5.07;;;3.10;;
45354;SDS011;31091;48.758;9.150;2024-03-17T00:23:17;6.97;;;3.17;;
45354;SDS011;31091;48.758;9.150;2024-03-17T00:26:02;7.93;;;3.08;;
45354;SDS011;31091;48.758;9.150;2024-03-17T00:28:47;6.18;;;3.15;;
45354;SDS011;31091;48.758;9.150;2024-03-17T00:31:35;6.43;;;3.30;;
45354;SDS011;31091;48.758;9.150;2024-03-17T00:34:22;9.38;;;4.40;;
45354;SDS011;31091;48.758;9.150;2024-03-17T00:37:07;5.35;;;3.38;;
45354;SDS011;31091;48.758;9.150;2024-03-17T00:39:52;5.97;;;3.03;;
45354;SDS011;31091;48.758;9.150;2024-03-17T00:42:38;5.25;;;2.95;;
45354;SDS011;31091;48.758;9.150;2024-03-17T00:45:23;6.78;;;3.50;;
45354;SDS011;31091;48.758;9.150;2024-03-17T00:48:08;5.68;;;3.75;;
45354;SDS011;31091;48.758;9.150;2024-03-17T00:50:57;9.48;;;3.78;;
45354;SDS011;31091;48.758;9.150;2024-03-17T00:53:43;8.05;;;3.88;;
45354;SDS011;31091;48.758;9.150;2024-03-17T00:56:28;9.27;;;4.68;;
45354;SDS011;31091;48.758;9.150;2024-03-17T00:59:13;8.10;;;4.18;;
45354;SDS011;31091;48.758;9.150;2024-03-17T01:01:59;8.35;;;3.80;;
45354;SDS011;31091;48.758;9.150;2024-03-17T01:04:45;5.47;;;3.55;;
45354;SDS011;31091;48.758;9.150;2024-03-17T01:07:30;6.22;;;3.40;;
45354;SDS011;31091;48.758;9.150;2024-03-17T01:10:16;7.47;;;2.60;;
45354;SDS011;31091;48.758;9.150;2024-03-17T01:13:01;5.40;;;2.60;;
45354;SDS011;31091;48.758;9.150;2024-03-17T01:15:50;6.95;;;3.25;;
45354;SDS011;31091;48.758;9.150;2024-03-17T01:18:36;6.05;;;3.67;;
45354;SDS011;31091;48.758;9.150;2024-03-17T01:21:22;7.63;;;4.00;;
45354;SDS011;31091;48.758;9.150;2024-03-17T01:24:07;5.22;;;3.00;;
45354;SDS011;31091;48.758;9.150;2024-03-17T01:26:52;4.75;;;3.13;;
45354;SDS011;31091;48.758;9.150;2024-03-17T01:29:38;6.10;;;3.17;;
45354;SDS011;31091;48.758;9.150;2024-03-17T01:32:23;6.13;;;3.47;;
45354;SDS011;31091;48.758;9.150;2024-03-17T01:35:08;6.95;;;3.03;;
45354;SDS011;31091;48.758;9.150;2024-03-17T01:37:53;5.68;;;3.10;;
45354;SDS011;31091;48.758;9.150;2024-03-17T01:40:39;9.40;;;2.78;;
45354;SDS011;31091;48.758;9.150;2024-03-17T01:43:26;5.47;;;3.13;;
45354;SDS011;31091;48.758;9.150;2024-03-17T01:46:11;5.28;;;2.55;;
45354;SDS011;31091;48.758;9.150;2024-03-17T01:48:58;3.90;;;2.42;;
45354;SDS011;31091;48.758;9.150;2024-03-17T01:51:44;6.07;;;2.92;;
45354;SDS011;31091;48.758;9.150;2024-03-17T01:54:29;6.57;;;2.97;;
45354;SDS011;31091;48.758;9.150;2024-03-17T01:57:15;9.02;;;2.58;;
45354;SDS011;31091;48.758;9.150;2024-03-17T02:00:00;6.35;;;3.15;;
45354;SDS011;31091;48.758;9.150;2024-03-17T02:02:45;4.95;;;2.53;;
45354;SDS011;31091;48.758;9.150;2024-03-17T02:05:30;4.60;;;2.92;;
45354;SDS011;31091;48.758;9.150;2024-03-17T02:08:16;5.53;;;2.55;;
45354;SDS011;31091;48.758;9.150;2024-03-17T02:11:01;4.70;;;2.85;;
45354;SDS011;31091;48.758;9.150;2024-03-17T02:13:46;5.40;;;2.90;;
45354;SDS011;31091;48.758;9.150;2024-03-17T02:16:31;3.92;;;2.47;;
45354;SDS011;31091;48.758;9.150;2024-03-17T02:19:17;4.93;;;2.67;;
45354;SDS011;31091;48.758;9.150;2024-03-17T02:22:02;4.50;;;2.95;;
45354;SDS011;31091;48.758;9.150;2024-03-17T02:24:47;10.38;;;3.67;;
45354;SDS011;31091;48.758;9.150;2024-03-17T02:27:32;6.25;;;2.85;;
45354;SDS011;31091;48.758;9.150;2024-03-17T02:30:17;6.60;;;2.70;;
45354;SDS011;31091;48.758;9.150;2024-03-17T02:33:03;7.43;;;2.88;;
45354;SDS011;31091;48.758;9.150;2024-03-17T02:35:48;6.20;;;3.00;;
45354;SDS011;31091;48.758;9.150;2024-03-17T02:38:33;4.55;;;2.60;;
45354;SDS011;31091;48.758;9.150;2024-03-17T02:41:37;5.03;;;2.78;;
45354;SDS011;31091;48.758;9.150;2024-03-17T02:44:26;4.65;;;2.80;;
45354;SDS011;31091;48.758;9.150;2024-03-17T02:47:12;5.93;;;2.85;;
45354;SDS011;31091;48.758;9.150;2024-03-17T02:49:59;5.47;;;2.65;;
45354;SDS011;31091;48.758;9.150;2024-03-17T02:52:44;8.40;;;2.92;;
45354;SDS011;31091;48.758;9.150;2024-03-17T02:55:30;5.88;;;3.10;;
45354;SDS011;31091;48.758;9.150;2024-03-17T02:58:15;9.98;;;3.03;;
45354;SDS011;31091;48.758;9.150;2024-03-17T03:01:01;5.13;;;2.90;;
45354;SDS011;31091;48.758;9.150;2024-03-17T03:03:46;6.55;;;2.50;;
45354;SDS011;31091;48.758;9.150;2024-03-17T03:06:32;7.20;;;3.03;;
45354;SDS011;31091;48.758;9.150;2024-03-17T03:09:17;7.22;;;2.78;;
45354;SDS011;31091;48.758;9.150;2024-03-17T03:12:10;5.90;;;2.85;;
45354;SDS011;31091;48.758;9.150;2024-03-17T03:14:56;4.28;;;2.28;;
45354;SDS011;31091;48.758;9.150;2024-03-17T03:17:41;5.32;;;3.03;;
45354;SDS011;31091;48.758;9.150;2024-03-17T03:20:26;8.23;;;2.78;;
45354;SDS011;31091;48.758;9.150;2024-03-17T03:23:13;7.93;;;3.15;;
45354;SDS011;31091;48.758;9.150;2024-03-17T03:25:58;5.43;;;2.75;;
45354;SDS011;31091;48.758;9.150;2024-03-17T03:28:44;6.53;;;3.13;;
45354;SDS011;31091;48.758;9.150;2024-03-17T03:31:30;5.75;;;3.30;;
45354;SDS011;31091;48.758;9.150;2024-03-17T03:34:16;5.05;;;2.60;;
45354;SDS011;31091;48.758;9.150;2024-03-17T03:37:01;6.20;;;3.75;;
45354;SDS011;31091;48.758;9.150;2024-03-17T03:39:46;7.10;;;2.90;;
45354;SDS011;31091;48.758;9.150;2024-03-17T03:42:31;6.57;;;3.35;;
45354;SDS011;31091;48.758;9.150;2024-03-17T03:45:17;7.07;;;3.42;;
45354;SDS011;31091;48.758;9.150;2024-03-17T03:48:03;4.82;;;2.97;;
45354;SDS011;31091;48.758;9.150;2024-03-17T03:50:48;5.68;;;3.25;;
45354;SDS011;31091;48.758;9.150;2024-03-17T03:53:34;5.13;;;2.92;;
45354;SDS011;31091;48.758;9.150;2024-03-17T03:56:19;5.78;;;3.60;;
45354;SDS011;31091;48.758;9.150;2024-03-17T03:59:05;8.15;;;3.97;;
45354;SDS011;31091;48.758;9.150;2024-03-17T04:01:50;7.22;;;3.45;;
45354;SDS011;31091;48.758;9.150;2024-03-17T04:04:37;8.10;;;4.05;;
45354;SDS011;31091;48.758;9.150;2024-03-17T04:07:22;7.60;;;2.97;;
45354;SDS011;31091;48.758;9.150;2024-03-17T04:10:08;5.05;;;2.80;;
45354;SDS011;31091;48.758;9.150;2024-03-17T04:12:53;6.13;;;3.42;;
45354;SDS011;31091;48.758;9.150;2024-03-17T04:15:38;4.95;;;2.95;;
45354;SDS011;31091;48.758;9.150;2024-03-17T04:18:24;6.93;;;3.08;;
45354;SDS011;31091;48.758;9.150;2024-03-17T04:21:09;5.97;;;3.65;;
45354;SDS011;31091;48.758;9.150;2024-03-17T04:23:55;7.72;;;3.78;;
45354;SDS011;31091;48.758;9.150;2024-03-17T04:26:40;8.40;;;4.13;;
45354;SDS011;31091;48.758;9.150;2024-03-17T04:29:25;7.13;;;3.58;;
45354;SDS011;31091;48.758;9.150;2024-03-17T04:32:10;5.97;;;3.83;;
45354;SDS011;31091;48.758;9.150;2024-03-17T04:34:56;7.60;;;4.05;;
45354;SDS011;31091;48.758;9.150;2024-03-17T04:37:41;6.25;;;4.03;;
45354;SDS011;31091;48.758;9.150;2024-03-17T04:40:26;7.35;;;4.30;;
45354;SDS011;31091;48.758;9.150;2024-03-17T04:43:11;7.95;;;4.05;;
45354;SDS011;31091;48.758;9.150;2024-03-17T04:46:00;7.93;;;4.00;;
45354;SDS011;31091;48.758;9.150;2024-03-17T04:48:46;4.70;;;3.28;;
45354;SDS011;31091;48.758;9.150;2024-03-17T04:51:31;5.90;;;3.53;;
45354;SDS011;31091;48.758;9.150;2024-03-17T04:54:17;8.50;;;4.70;;
45354;SDS011;31091;48.758;9.150;2024-03-17T04:57:02;5.28;;;3.42;;
45354;SDS011;31091;48.758;9.150;2024-03-17T04:59:47;7.65;;;4.32;;
45354;SDS011;31091;48.758;9.150;2024-03-17T05:02:33;6.93;;;4.47;;
45354;SDS011;31091;48.758;9.150;2024-03-17T05:05:18;8.65;;;4.22;;
45354;SDS011;31091;48.758;9.150;2024-03-17T05:08:03;7.18;;;4.07;;
45354;SDS011;31091;48.758;9.150;2024-03-17T05:10:55;8.27;;;3.78;;
45354;SDS011;31091;48.758;9.150;2024-03-17T05:13:42;7.93;;;4.07;;
45354;SDS011;31091;48.758;9.150;2024-03-17T05:16:28;8.57;;;4.20;;
45354;SDS011;31091;48.758;9.150;2024-03-17T05:19:14;5.93;;;3.58;;
45354;SDS011;31091;48.758;9.150;2024-03-17T05:21:59;5.60;;;3.70;;
45354;SDS011;31091;48.758;9.150;2024-03-17T05:24:45;9.32;;;3.83;;
45354;SDS011;31091;48.758;9.150;2024-03-17T05:27:30;6.15;;;3.90;;
45354;SDS011;31091;48.758;9.150;2024-03-17T05:30:15;11.48;;;3.90;;
45354;SDS011;31091;48.758;9.150;2024-03-17T05:33:01;7.50;;;4.30;;
45354;SDS011;31091;48.758;9.150;2024-03-17T05:35:49;8.70;;;4.40;;
45354;SDS011;31091;48.758;9.150;2024-03-17T05:38:40;7.43;;;4.78;;
45354;SDS011;31091;48.758;9.150;2024-03-17T05:41:25;7.25;;;4.35;;
45354;SDS011;31091;48.758;9.150;2024-03-17T05:44:11;6.90;;;4.25;;
45354;SDS011;31091;48.758;9.150;2024-03-17T05:46:56;7.13;;;4.20;;
45354;SDS011;31091;48.758;9.150;2024-03-17T05:49:43;7.93;;;4.40;;
45354;SDS011;31091;48.758;9.150;2024-03-17T05:52:28;8.45;;;4.43;;
45354;SDS011;31091;48.758;9.150;2024-03-17T05:55:13;7.22;;;4.28;;
45354;SDS011;31091;48.758;9.150;2024-03-17T05:57:58;9.80;;;4.90;;
45354;SDS011;31091;48.758;9.150;2024-03-17T06:00:44;7.80;;;4.15;;
45354;SDS011;31091;48.758;9.150;2024-03-17T06:03:29;9.13;;;4.68;;
45354;SDS011;31091;48.758;9.150;2024-03-17T06:06:14;8.15;;;4.72;;
45354;SDS011;31091;48.758;9.150;2024-03-17T06:08:59;7.32;;;4.45;;
45354;SDS011;31091;48.758;9.150;2024-03-17T06:11:48;7.30;;;5.10;;
45354;SDS011;31091;48.758;9.150;2024-03-17T06:14:33;8.15;;;4.07;;
45354;SDS011;31091;48.758;9.150;2024-03-17T06:17:19;12.38;;;4.65;;
45354;SDS011;31091;48.758;9.150;2024-03-17T06:20:04;7.53;;;4.53;;
45354;SDS011;31091;48.758;9.150;2024-03-17T06:22:50;6.95;;;4.10;;
45354;SDS011;31091;48.758;9.150;2024-03-17T06:25:39;8.23;;;4.45;;
45354;SDS011;31091;48.758;9.150;2024-03-17T06:28:25;9.80;;;5.22;;
45354;SDS011;31091;48.758;9.150;2024-03-17T06:31:11;8.50;;;4.85;;
45354;SDS011;31091;48.758;9.150;2024-03-17T06:33:56;8.63;;;4.88;;
45354;SDS011;31091;48.758;9.150;2024-03-17T06:36:41;10.00;;;5.45;;
45354;SDS011;31091;48.758;9.150;2024-03-17T06:39:27;9.75;;;5.55;;
45354;SDS011;31091;48.758;9.150;2024-03-17T06:42:12;10.68;;;5.78;;
45354;SDS011;31091;48.758;9.150;2024-03-17T06:44:57;9.27;;;6.13;;
45354;SDS011;31091;48.758;9.150;2024-03-17T06:47:43;12.02;;;6.80;;
45354;SDS011;31091;48.758;9.150;2024-03-17T06:50:28;9.73;;;5.53;;
45354;SDS011;31091;48.758;9.150;2024-03-17T06:53:14;11.55;;;5.95;;
45354;SDS011;31091;48.758;9.150;2024-03-17T06:55:59;10.65;;;6.20;;
45354;SDS011;31091;48.758;9.150;2024-03-17T06:58:44;11.25;;;6.25;;
45354;SDS011;31091;48.758;9.150;2024-03-17T07:01:30;13.45;;;6.95;;
45354;SDS011;31091;48.758;9.150;2024-03-17T07:04:15;11.90;;;6.63;;
45354;SDS011;31091;48.758;9.150;2024-03-17T07:07:01;11.73;;;6.70;;
45354;SDS011;31091;48.758;9.150;2024-03-17T07:09:46;11.88;;;7.20;;
45354;SDS011;31091;48.758;9.150;2024-03-17T07:12:32;12.32;;;7.50;;
45354;SDS011;31091;48.758;9.150;2024-03-17T07:15:17;10.68;;;7.60;;
45354;SDS011;31091;48.758;9.150;2024-03-17T07:18:02;10.93;;;6.97;;
45354;SDS011;31091;48.758;9.150;2024-03-17T07:20:47;11.55;;;6.97;;
45354;SDS011;31091;48.758;9.150;2024-03-17T07:23:33;14.27;;;8.63;;
45354;SDS011;31091;48.758;9.150;2024-03-17T07:26:18;11.32;;;7.40;;
45354;SDS011;31091;48.758;9.150;2024-03-17T07:29:03;12.57;;;7.68;;
45354;SDS011;31091;48.758;9.150;2024-03-17T07:31:48;12.50;;;8.27;;
45354;SDS011;31091;48.758;9.150;2024-03-17T07:34:34;12.02;;;8.13;;
45354;SDS011;31091;48.758;9.150;2024-03-17T07:37:20;12.68;;;8.43;;
45354;SDS011;31091;48.758;9.150;2024-03-17T07:40:05;15.68;;;8.82;;
45354;SDS011;31091;48.758;9.150;2024-03-17T07:42:55;15.35;;;9.05;;
45354;SDS011;31091;48.758;9.150;2024-03-17T07:45:40;15.55;;;9.45;;
45354;SDS011;31091;48.758;9.150;2024-03-17T07:48:28;11.25;;;8.38;;
45354;SDS011;31091;48.758;9.150;2024-03-17T07:51:14;12.93;;;8.55;;
45354;SDS011;31091;48.758;9.150;2024-03-17T07:53:59;12.82;;;9.05;;
45354;SDS011;31091;48.758;9.150;2024-03-17T07:56:45;14.35;;;8.73;;
45354;SDS011;31091;48.758;9.150;2024-03-17T07:59:31;11.88;;;8.40;;
45354;SDS011;31091;48.758;9.150;2024-03-17T08:02:16;13.38;;;8.15;;
45354;SDS011;31091;48.758;9.150;2024-03-17T08:05:01;14.70;;;7.95;;
45354;SDS011;31091;48.758;9.150;2024-03-17T08:07:46;10.70;;;7.97;;
45354;SDS011;31091;48.758;9.150;2024-03-17T08:10:31;15.18;;;8.88;;
45354;SDS011;31091;48.758;9.150;2024-03-17T08:13:17;13.98;;;9.07;;
45354;SDS011;31091;48.758;9.150;2024-03-17T08:16:03;10.32;;;7.97;;
45354;SDS011;31091;48.758;9.150;2024-03-17T08:18:50;10.45;;;7.82;;
45354;SDS011;31091;48.758;9.150;2024-03-17T08:21:35;11.75;;;8.32;;
45354;SDS011;31091;48.758;9.150;2024-03-17T08:24:21;13.23;;;7.57;;
45354;SDS011;31091;48.758;9.150;2024-03-17T08:27:06;9.60;;;7.07;;
45354;SDS011;31091;48.758;9.150;2024-03-17T08:29:51;10.57;;;6.90;;
45354;SDS011;31091;48.758;9.150;2024-03-17T08:32:36;11.20;;;7.07;;
45354;SDS011;31091;48.758;9.150;2024-03-17T08:35:22;9.93;;;7.55;;
45354;SDS011;31091;48.758;9.150;2024-03-17T08:38:07;13.85;;;7.65;;
45354;SDS011;31091;48.758;9.150;2024-03-17T08:40:52;10.07;;;6.40;;
45354;SDS011;31091;48.758;9.150;2024-03-17T08:43:38;9.00;;;6.13;;
45354;SDS011;31091;48.758;9.150;2024-03-17T08:46:23;12.23;;;5.22;;
45354;SDS011;31091;48.758;9.150;2024-03-17T08:49:08;8.35;;;5.63;;
45354;SDS011;31091;48.758;9.150;2024-03-17T08:51:53;9.00;;;6.53;;
45354;SDS011;31091;48.758;9.150;2024-03-17T08:54:39;11.27;;;6.00;;
45354;SDS011;31091;48.758;9.150;2024-03-17T08:57:24;7.75;;;5.35;;
45354;SDS011;31091;48.758;9.150;2024-03-17T09:00:10;8.90;;;5.50;;
45354;SDS011;31091;48.758;9.150;2024-03-17T09:02:55;8.00;;;5.28;;
45354;SDS011;31091;48.758;9.150;2024-03-17T09:05:44;9.18;;;5.25;;
45354;SDS011;31091;48.758;9.150;2024-03-17T09:08:29;9.55;;;5.50;;
45354;SDS011;31091;48.758;9.150;2024-03-17T09:11:14;8.40;;;5.75;;
45354;SDS011;31091;48.758;9.150;2024-03-17T09:13:59;7.15;;;5.00;;
45354;SDS011;31091;48.758;9.150;2024-03-17T09:16:46;6.63;;;4.50;;
45354;SDS011;31091;48.758;9.150;2024-03-17T09:19:31;9.80;;;5.00;;
45354;SDS011;31091;48.758;9.150;2024-03-17T09:22:18;6.35;;;4.82;;
45354;SDS011;31091;48.758;9.150;2024-03-17T09:25:04;8.10;;;5.47;;
45354;SDS011;31091;48.758;9.150;2024-03-17T09:27:50;8.77;;;4.80;;
45354;SDS011;31091;48.758;9.150;2024-03-17T09:30:35;7.82;;;5.30;;
45354;SDS011;31091;48.758;9.150;2024-03-17T09:33:20;10.43;;;5.97;;
45354;SDS011;31091;48.758;9.150;2024-03-17T09:36:06;10.63;;;6.13;;
45354;SDS011;31091;48.758;9.150;2024-03-17T09:38:52;8.25;;;5.25;;
45354;SDS011;31091;48.758;9.150;2024-03-17T09:41:37;10.35;;;6.13;;
45354;SDS011;31091;48.758;9.150;2024-03-17T09:44:23;10.02;;;5.75;;
45354;SDS011;31091;48.758;9.150;2024-03-17T09:47:09;7.18;;;4.88;;
45354;SDS011;31091;48.758;9.150;2024-03-17T09:49:59;7.95;;;5.07;;
45354;SDS011;31091;48.758;9.150;2024-03-17T09:52:45;9.45;;;5.55;;
45354;SDS011;31091;48.758;9.150;2024-03-17T09:55:31;8.32;;;5.20;;
45354;SDS011;31091;48.758;9.150;2024-03-17T09:58:16;6.88;;;4.68;;
45354;SDS011;31091;48.758;9.150;2024-03-17T10:01:04;8.23;;;4.65;;
45354;SDS011;31091;48.758;9.150;2024-03-17T10:03:51;7.47;;;5.05;;
45354;SDS011;31091;48.758;9.150;2024-03-17T10:06:46;8.50;;;4.97;;
45354;SDS011;31091;48.758;9.150;2024-03-17T10:09:31;7.63;;;4.35;;
45354;SDS011;31091;48.758;9.150;2024-03-17T10:12:25;7.20;;;4.28;;
45354;SDS011;31091;48.758;9.150;2024-03-17T10:15:11;7.70;;;4.57;;
45354;SDS011;31091;48.758;9.150;2024-03-17T10:17:56;9.77;;;4.65;;
45354;SDS011;31091;48.758;9.150;2024-03-17T10:20:41;6.15;;;4.22;;
45354;SDS011;31091;48.758;9.150;2024-03-17T10:23:27;7.35;;;4.32;;
45354;SDS011;31091;48.758;9.150;2024-03-17T10:26:13;7.53;;;4.05;;
45354;SDS011;31091;48.758;9.150;2024-03-17T10:28:59;7.32;;;4.50;;
45354;SDS011;31091;48.758;9.150;2024-03-17T10:31:44;9.30;;;3.95;;
45354;SDS011;31091;48.758;9.150;2024-03-17T10:34:33;6.30;;;4.30;;
45354;SDS011;31091;48.758;9.150;2024-03-17T10:37:21;6.70;;;3.78;;
45354;SDS011;31091;48.758;9.150;2024-03-17T10:40:12;7.25;;;3.55;;
45354;SDS011;31091;48.758;9.150;2024-03-17T10:42:58;6.10;;;3.70;;
45354;SDS011;31091;48.758;9.150;2024-03-17T10:45:43;5.88;;;3.13;;
45354;SDS011;31091;48.758;9.150;2024-03-17T10:48:30;5.38;;;3.17;;
45354;SDS011;31091;48.758;9.150;2024-03-17T10:51:17;3.53;;;2.78;;
45354;SDS011;31091;48.758;9.150;2024-03-17T10:54:03;5.75;;;3.70;;
45354;SDS011;31091;48.758;9.150;2024-03-17T10:56:48;9.23;;;3.67;;
45354;SDS011;31091;48.758;9.150;2024-03-17T10:59:44;6.70;;;3.40;;
45354;SDS011;31091;48.758;9.150;2024-03-17T11:02:31;4.72;;;2.60;;
45354;SDS011;31091;48.758;9.150;2024-03-17T11:08:06;5.15;;;3.20;;
45354;SDS011;31091;48.758;9.150;2024-03-17T11:10:55;9.90;;;6.35;;
45354;SDS011;31091;48.758;9.150;2024-03-17T11:13:40;6.72;;;3.85;;
45354;SDS011;31091;48.758;9.150;2024-03-17T11:16:26;4.15;;;2.33;;
45354;SDS011;31091;48.758;9.150;2024-03-17T11:19:14;6.28;;;3.50;;
45354;SDS011;31091;48.758;9.150;2024-03-17T11:22:22;5.97;;;2.50;;
45354;SDS011;31091;48.758;9.150;2024-03-17T11:25:36;5.57;;;3.15;;
45354;SDS011;31091;48.758;9.150;2024-03-17T11:28:44;3.42;;;2.00;;
45354;SDS011;31091;48.758;9.150;2024-03-17T11:31:58;6.85;;;3.03;;
45354;SDS011;31091;48.758;9.150;2024-03-17T11:34:40;3.63;;;2.25;;
45354;SDS011;31091;48.758;9.150;2024-03-17T11:37:41;5.00;;;2.30;;
45354;SDS011;31091;48.758;9.150;2024-03-17T11:40:27;5.45;;;2.10;;
45354;SDS011;31091;48.758;9.150;2024-03-17T11:43:15;3.88;;;2.40;;
45354;SDS011;31091;48.758;9.150;2024-03-17T11:46:01;5.82;;;2.30;;
45354;SDS011;31091;48.758;9.150;2024-03-17T11:48:46;5.95;;;2.53;;
45354;SDS011;31091;48.758;9.150;2024-03-17T11:51:35;3.28;;;2.05;;
45354;SDS011;31091;48.758;9.150;2024-03-17T11:54:21;7.28;;;2.90;;
45354;SDS011;31091;48.758;9.150;2024-03-17T11:57:07;7.68;;;3.05;;
45354;SDS011;31091;48.758;9.150;2024-03-17T11:59:54;5.18;;;2.60;;
45354;SDS011;31091;48.758;9.150;2024-03-17T12:02:39;6.80;;;3.67;;
45354;SDS011;31091;48.758;9.150;2024-03-17T12:05:24;10.23;;;3.30;;
45354;SDS011;31091;48.758;9.150;2024-03-17T12:08:20;4.18;;;2.45;;
45354;SDS011;31091;48.758;9.150;2024-03-17T12:11:14;6.38;;;2.70;;
45354;SDS011;31091;48.758;9.150;2024-03-17T12:14:09;5.15;;;2.45;;
45354;SDS011;31091;48.758;9.150;2024-03-17T12:16:55;12.90;;;3.17;;
45354;SDS011;31091;48.758;9.150;2024-03-17T12:19:41;6.18;;;3.17;;
45354;SDS011;31091;48.758;9.150;2024-03-17T12:22:29;6.70;;;4.10;;
45354;SDS011;31091;48.758;9.150;2024-03-17T12:25:19;5.50;;;3.47;;
45354;SDS011;31091;48.758;9.150;2024-03-17T12:28:11;4.18;;;2.85;;
45354;SDS011;31091;48.758;9.150;2024-03-17T12:31:00;5.65;;;3.78;;
45354;SDS011;31091;48.758;9.150;2024-03-17T12:33:45;5.75;;;3.20;;
45354;SDS011;31091;48.758;9.150;2024-03-17T12:36:31;8.65;;;3.05;;
45354;SDS011;31091;48.758;9.150;2024-03-17T12:39:23;4.85;;;3.35;;
45354;SDS011;31091;48.758;9.150;2024-03-17T12:42:09;5.13;;;3.35;;
45354;SDS011;31091;48.758;9.150;2024-03-17T12:44:55;5.32;;;3.25;;
45354;SDS011;31091;48.758;9.150;2024-03-17T12:47:40;5.63;;;4.00;;
45354;SDS011;31091;48.758;9.150;2024-03-17T12:50:31;5.45;;;3.55;;
45354;SDS011;31091;48.758;9.150;2024-03-17T12:53:16;10.25;;;3.22;;
45354;SDS011;31091;48.758;9.150;2024-03-17T12:56:07;8.18;;;3.60;;
45354;SDS011;31091;48.758;9.150;2024-03-17T12:59:10;7.55;;;2.50;;
45354;SDS011;31091;48.758;9.150;2024-03-17T13:02:14;6.72;;;3.30;;
45354;SDS011;31091;48.758;9.150;2024-03-17T13:05:14;4.97;;;3.13;;
45354;SDS011;31091;48.758;9.150;2024-03-17T13:08:00;9.18;;;3.33;;
45354;SDS011;31091;48.758;9.150;2024-03-17T13:10:47;4.97;;;3.05;;
45354;SDS011;31091;48.758;9.150;2024-03-17T13:13:32;6.53;;;3.50;;
45354;SDS011;31091;48.758;9.150;2024-03-17T13:16:17;8.85;;;3.60;;
45354;SDS011;31091;48.758;9.150;2024-03-17T13:19:02;4.85;;;2.45;;
45354;SDS011;31091;48.758;9.150;2024-03-17T13:21:47;7.40;;;3.60;;
45354;SDS011;31091;48.758;9.150;2024-03-17T13:24:33;6.00;;;3.30;;
45354;SDS011;31091;48.758;9.150;2024-03-17T13:27:18;6.10;;;3.28;;
45354;SDS011;31091;48.758;9.150;2024-03-17T13:30:04;7.35;;;3.10;;
45354;SDS011;31091;48.758;9.150;2024-03-17T13:32:54;5.90;;;2.90;;
45354;SDS011;31091;48.758;9.150;2024-03-17T13:35:45;7.32;;;2.95;;
45354;SDS011;31091;48.758;9.150;2024-03-17T13:38:30;5.03;;;2.97;;
45354;SDS011;31091;48.758;9.150;2024-03-17T13:41:16;4.45;;;2.67;;
45354;SDS011;31091;48.758;9.150;2024-03-17T13:44:01;6.85;;;2.83;;
45354;SDS011;31091;48.758;9.150;2024-03-17T13:46:46;7.15;;;2.78;;
45354;SDS011;31091;48.758;9.150;2024-03-17T13:49:33;4.93;;;3.08;;
45354;SDS011;31091;48.758;9.150;2024-03-17T13:52:21;5.90;;;2.70;;
45354;SDS011;31091;48.758;9.150;2024-03-17T13:55:08;4.65;;;2.80;;
45354;SDS011;31091;48.758;9.150;2024-03-17T13:57:57;3.40;;;2.20;;
45354;SDS011;31091;48.758;9.150;2024-03-17T14:00:44;3.03;;;2.45;;
45354;SDS011;31091;48.758;9.150;2024-03-17T14:03:29;4.90;;;3.05;;
45354;SDS011;31091;48.758;9.150;2024-03-17T14:06:15;6.93;;;2.72;;
45354;SDS011;31091;48.758;9.150;2024-03-17T14:09:00;6.00;;;2.60;;
45354;SDS011;31091;48.758;9.150;2024-03-17T14:11:46;7.13;;;2.47;;
45354;SDS011;31091;48.758;9.150;2024-03-17T14:14:31;5.88;;;2.20;;
45354;SDS011;31091;48.758;9.150;2024-03-17T14:17:16;5.78;;;2.38;;
45354;SDS011;31091;48.758;9.150;2024-03-17T14:20:02;4.35;;;2.20;;
45354;SDS011;31091;48.758;9.150;2024-03-17T14:22:48;3.95;;;2.60;;
45354;SDS011;31091;48.758;9.150;2024-03-17T14:25:38;5.35;;;2.53;;
45354;SDS011;31091;48.758;9.150;2024-03-17T14:28:23;7.20;;;2.78;;
45354;SDS011;31091;48.758;9.150;2024-03-17T14:31:10;6.45;;;2.83;;
45354;SDS011;31091;48.758;9.150;2024-03-17T14:33:55;5.00;;;2.22;;
45354;SDS011;31091;48.758;9.150;2024-03-17T14:36:40;5.88;;;2.65;;
45354;SDS011;31091;48.758;9.150;2024-03-17T14:39:26;5.30;;;2.20;;
45354;SDS011;31091;48.758;9.150;2024-03-17T14:42:14;3.38;;;2.45;;
45354;SDS011;31091;48.758;9.150;2024-03-17T14:45:00;5.18;;;2.75;;
45354;SDS011;31091;48.758;9.150;2024-03-17T14:47:45;4.70;;;2.47;;
45354;SDS011;31091;48.758;9.150;2024-03-17T14:50:30;4.28;;;2.30;;
45354;SDS011;31091;48.758;9.150;2024-03-17T14:53:16;4.90;;;2.00;;
45354;SDS011;31091;48.758;9.150;2024-03-17T14:56:02;6.82;;;2.03;;
45354;SDS011;31091;48.758;9.150;2024-03-17T14:58:48;4.05;;;2.10;;
45354;SDS011;31091;48.758;9.150;2024-03-17T15:01:34;4.32;;;2.33;;
45354;SDS011;31091;48.758;9.150;2024-03-17T15:04:19;3.03;;;1.83;;
45354;SDS011;31091;48.758;9.150;2024-03-17T15:07:05;5.88;;;2.63;;
45354;SDS011;31091;48.758;9.150;2024-03-17T15:09:50;6.82;;;2.38;;
45354;SDS011;31091;48.758;9.150;2024-03-17T15:12:35;5.97;;;2.70;;
45354;SDS011;31091;48.758;9.150;2024-03-17T15:15:20;6.40;;;2.45;;
45354;SDS011;31091;48.758;9.150;2024-03-17T15:18:07;5.90;;;2.60;;
45354;SDS011;31091;48.758;9.150;2024-03-17T15:20:53;6.10;;;2.97;;
45354;SDS011;31091;48.758;9.150;2024-03-17T15:23:39;5.93;;;2.53;;
45354;SDS011;31091;48.758;9.150;2024-03-17T15:26:25;4.65;;;1.95;;
45354;SDS011;31091;48.758;9.150;2024-03-17T15:29:10;5.60;;;2.50;;
45354;SDS011;31091;48.758;9.150;2024-03-17T15:31:57;6.13;;;2.30;;
45354;SDS011;31091;48.758;9.150;2024-03-17T15:34:42;3.15;;;2.13;;
45354;SDS011;31091;48.758;9.150;2024-03-17T15:37:28;3.78;;;2.10;;
45354;SDS011;31091;48.758;9.150;2024-03-17T15:40:13;5.68;;;2.55;;
45354;SDS011;31091;48.758;9.150;2024-03-17T15:43:02;5.40;;;2.42;;
45354;SDS011;31091;48.758;9.150;2024-03-17T15:45:47;3.78;;;2.78;;
45354;SDS011;31091;48.758;9.150;2024-03-17T15:48:32;7.43;;;2.25;;
45354;SDS011;31091;48.758;9.150;2024-03-17T15:51:17;5.82;;;3.67;;
45354;SDS011;31091;48.758;9.150;2024-03-17T15:54:03;4.13;;;2.85;;
45354;SDS011;31091;48.758;9.150;2024-03-17T15:56:49;5.20;;;2.60;;
45354;SDS011;31091;48.758;9.150;2024-03-17T15:59:34;8.10;;;3.30;;
45354;SDS011;31091;48.758;9.150;2024-03-17T16:02:22;9.02;;;3.88;;
45354;SDS011;31091;48.758;9.150;2024-03-17T16:05:07;10.48;;;3.42;;
45354;SDS011;31091;48.758;9.150;2024-03-17T16:07:56;7.43;;;3.30;;
45354;SDS011;31091;48.758;9.150;2024-03-17T16:10:49;8.32;;;3.40;;
45354;SDS011;31091;48.758;9.150;2024-03-17T16:13:35;6.78;;;3.03;;
45354;SDS011;31091;48.758;9.150;2024-03-17T16:16:21;7.25;;;3.35;;
45354;SDS011;31091;48.758;9.150;2024-03-17T16:19:10;6.80;;;3.70;;
45354;SDS011;31091;48.758;9.150;2024-03-17T16:21:55;5.10;;;3.08;;
45354;SDS011;31091;48.758;9.150;2024-03-17T16:24:41;4.93;;;2.95;;
45354;SDS011;31091;48.758;9.150;2024-03-17T16:27:27;4.97;;;2.70;;
45354;SDS011;31091;48.758;9.150;2024-03-17T16:30:12;5.60;;;2.72;;
45354;SDS011;31091;48.758;9.150;2024-03-17T16:32:58;7.53;;;3.28;;
45354;SDS011;31091;48.758;9.150;2024-03-17T16:35:43;10.80;;;4.50;;
45354;SDS011;31091;48.758;9.150;2024-03-17T16:38:30;9.90;;;4.07;;
45354;SDS011;31091;48.758;9.150;2024-03-17T16:41:16;8.57;;;3.63;;
45354;SDS011;31091;48.758;9.150;2024-03-17T16:49:41;6.80;;;3.08;;